Time;durP1;ratioP1;P1;durP2;ratioP2;P2;SDS_P1;SDS_P2;PMS_P1;PMS_P2;Temp;Humidity;BMP_temperature;BMP_pressure;BME280_temperature;BME280_humidity;BME280_pressure;Samples;Min_cycle;Max_cycle;Signal;HPM_P1;HPM_P2
2024/01/18 00:02:22;;;;;;;;;;;;;;;;;;;;;
2024/01/18 00:04:58;;;;;;;10.30;6.10;;;;;;;-0.11;100.00;99193.25;5079084;28;20036;-92
2024/01/18 00:07:48;;;;;;;17.98;8.40;;;;;;;-0.10;100.00;99200.22;5095082;28;20028;-93
2024/01/18 00:10:23;;;;;;;16.83;7.63;;;;;;;-0.13;100.00;99205.94;5082344;28;20104;-91
2024/01/18 00:12:52;;;;;;;15.23;9.50;;;;;;;-0.14;100.00;99216.78;5076674;28;20336;-91
2024/01/18 00:15:18;;;;;;;16.40;7.88;;;;;;;-0.16;100.00;99216.97;5086743;28;20025;-91
2024/01/18 00:17:50;;;;;;;12.27;6.30;;;;;;;-0.19;100.00;99217.34;5083514;28;20131;-92
2024/01/18 00:20:19;;;;;;;19.80;9.00;;;;;;;-0.22;100.00;99223.06;5079811;28;20502;-91
2024/01/18 00:22:50;;;;;;;12.00;6.65;;;;;;;-0.22;100.00;99234.53;5087289;28;20036;-92
2024/01/18 00:25:15;;;;;;;13.27;7.18;;;;;;;-0.20;100.00;99237.84;5087033;28;20024;-91
2024/01/18 00:27:41;;;;;;;11.57;6.43;;;;;;;-0.14;100.00;99246.13;5087807;28;20025;-90
2024/01/18 00:30:09;;;;;;;17.48;9.25;;;;;;;-0.21;100.00;99232.69;5080569;28;20408;-90
2024/01/18 00:32:35;;;;;;;11.57;6.67;;;;;;;-0.14;100.00;99235.44;5095859;28;20021;-90
2024/01/18 00:35:26;;;;;;;14.90;8.27;;;;;;;-0.20;100.00;99232.50;5090893;28;20286;-91
2024/01/18 00:37:54;;;;;;;9.77;5.75;;;;;;;-0.19;100.00;99236.00;5086927;28;20044;-92
2024/01/18 00:40:22;;;;;;;14.15;7.38;;;;;;;-0.21;100.00;99238.88;5077624;28;20028;-92
2024/01/18 00:42:48;;;;;;;12.63;7.30;;;;;;;-0.22;100.00;99239.06;5076634;28;20119;-91
2024/01/18 00:45:14;;;;;;;15.20;7.03;;;;;;;-0.17;100.00;99243.81;5076505;28;20318;-92
2024/01/18 00:47:39;;;;;;;15.03;8.63;;;;;;;-0.20;100.00;99237.00;5077521;28;20028;-91
2024/01/18 00:53:29;;;;;;;15.60;8.38;;;;;;;-0.14;100.00;99248.78;5097917;28;20066;-91
2024/01/18 00:59:28;;;;;;;17.05;9.32;;;;;;;-0.16;100.00;99253.44;5097877;28;20030;-91
2024/01/18 01:01:56;;;;;;;20.15;9.73;;;;;;;-0.17;100.00;99270.47;5063476;28;20181;-91
2024/01/18 01:04:21;;;;;;;15.13;7.40;;;;;;;-0.16;100.00;99266.78;5079448;28;20028;-91
2024/01/18 01:06:50;;;;;;;17.98;9.48;;;;;;;-0.24;100.00;99265.88;5078529;28;20477;-91
2024/01/18 01:09:29;;;;;;;16.65;7.93;;;;;;;-0.25;100.00;99261.56;5078360;28;20118;-90
2024/01/18 01:12:02;;;;;;;14.93;8.20;;;;;;;-0.29;100.00;99267.44;5079405;28;20024;-91
2024/01/18 01:14:33;;;;;;;14.00;7.47;;;;;;;-0.33;100.00;99266.97;5079151;28;20020;-90
2024/01/18 01:16:58;;;;;;;17.35;8.60;;;;;;;-0.30;100.00;99274.59;5078789;28;20027;-91
2024/01/18 01:19:24;;;;;;;9.87;5.13;;;;;;;-0.33;100.00;99266.16;5078293;28;20499;-90
2024/01/18 01:21:49;;;;;;;15.80;7.38;;;;;;;-0.30;100.00;99271.94;5078507;28;20023;-89
2024/01/18 01:24:24;;;;;;;15.23;8.03;;;;;;;-0.33;100.00;99274.97;5062644;28;20032;-92
2024/01/18 01:26:52;;;;;;;11.93;6.25;;;;;;;-0.34;100.00;99280.47;5078593;28;20024;-91
2024/01/18 01:29:21;;;;;;;12.02;7.07;;;;;;;-0.41;100.00;99281.22;5061600;28;20032;-91
2024/01/18 01:31:49;;;;;;;13.27;7.27;;;;;;;-0.44;100.00;99281.59;5078445;28;20118;-90
2024/01/18 01:34:15;;;;;;;13.40;7.13;;;;;;;-0.40;100.00;99290.03;5078247;28;20117;-91
2024/01/18 01:36:43;;;;;;;10.35;6.45;;;;;;;-0.39;100.00;99289.03;5096833;28;20032;-91
2024/01/18 01:39:11;;;;;;;16.48;8.30;;;;;;;-0.46;100.00;99299.56;5079114;28;20032;-91
2024/01/18 01:41:47;;;;;;;14.75;8.27;;;;;;;-0.47;100.00;99305.09;5061677;28;20460;-92
2024/01/18 01:44:12;;;;;;;17.47;9.30;;;;;;;-0.52;100.00;99296.81;5078352;28;20046;-91
2024/01/18 01:46:45;;;;;;;16.10;9.52;;;;;;;-0.50;100.00;99300.13;5078390;28;20032;-91
2024/01/18 01:49:21;;;;;;;12.90;8.10;;;;;;;-0.52;100.00;99305.63;5078554;28;20081;-91
2024/01/18 01:51:55;;;;;;;14.68;6.70;;;;;;;-0.58;100.00;99298.38;5078278;28;20302;-91
2024/01/18 01:54:21;;;;;;;15.75;8.23;;;;;;;-0.59;100.00;99305.53;5077981;28;20062;-91
2024/01/18 01:56:57;;;;;;;18.58;9.60;;;;;;;-0.59;100.00;99310.03;5077652;28;20032;-91
2024/01/18 01:59:23;;;;;;;20.03;9.90;;;;;;;-0.60;100.00;99311.88;5078250;28;20111;-91
2024/01/18 02:02:05;;;;;;;12.88;6.97;;;;;;;-0.61;100.00;99312.88;5078028;28;20287;-91
2024/01/18 02:04:31;;;;;;;20.48;10.35;;;;;;;-0.67;100.00;99305.59;5064177;28;20090;-91
2024/01/18 02:06:58;;;;;;;13.70;6.15;;;;;;;-0.68;100.00;99303.13;5077773;28;20016;-91
2024/01/18 02:09:30;;;;;;;12.35;7.57;;;;;;;-0.65;100.00;99316.09;5077846;28;20032;-91
2024/01/18 02:11:56;;;;;;;13.67;7.10;;;;;;;-0.66;100.00;99306.47;5061498;28;20028;-91
2024/01/18 02:14:28;;;;;;;21.73;10.32;;;;;;;-0.71;100.00;99307.81;5077313;28;20278;-91
2024/01/18 02:16:53;;;;;;;21.33;10.90;;;;;;;-0.73;100.00;99311.66;5077195;28;20032;-91
2024/01/18 02:19:19;;;;;;;17.93;9.80;;;;;;;-0.75;100.00;99305.69;5077235;28;20134;-91
2024/01/18 02:21:47;;;;;;;14.80;6.63;;;;;;;-0.75;100.00;99305.69;5077425;28;20078;-91
2024/01/18 02:24:45;;;;;;;20.92;10.43;;;;;;;-0.73;100.00;99309.81;5077254;28;20169;-91
2024/01/18 02:27:24;;;;;;;;;;;;;;;;;;;;;
2024/01/18 02:29:52;;;;;;;11.25;6.43;;;;;;;-0.77;100.00;99297.03;5095367;28;20036;-91
2024/01/18 02:32:26;;;;;;;11.57;6.70;;;;;;;-0.76;100.00;99304.03;5077039;28;20047;-91
2024/01/18 02:34:54;;;;;;;17.65;7.53;;;;;;;-0.74;100.00;99310.00;5061537;28;20693;-91
2024/01/18 02:37:19;;;;;;;11.15;6.43;;;;;;;-0.72;100.00;99313.31;5077151;28;20038;-91
2024/01/18 02:39:45;;;;;;;22.92;10.40;;;;;;;-0.71;100.00;99318.47;5076350;28;20119;-91
2024/01/18 02:42:30;;;;;;;19.27;9.37;;;;;;;-0.67;100.00;99318.94;5077763;28;20024;-91
2024/01/18 02:44:57;;;;;;;12.57;7.50;;;;;;;-0.69;100.00;99312.97;5079321;28;20376;-91
2024/01/18 02:47:24;;;;;;;14.80;7.13;;;;;;;-0.69;100.00;99312.97;5078807;28;20462;-91
2024/01/18 02:49:57;;;;;;;14.93;7.70;;;;;;;-0.66;100.00;99319.78;5060531;28;20478;-91
2024/01/18 02:52:33;;;;;;;16.13;8.63;;;;;;;-0.71;100.00;99317.63;5061318;28;20765;-92
2024/01/18 02:55:07;;;;;;;16.02;8.70;;;;;;;-0.71;100.00;99320.28;5076641;28;20079;-92
2024/01/18 02:57:35;;;;;;;20.77;9.95;;;;;;;-0.73;100.00;99322.31;5077709;28;20134;-92
2024/01/18 03:00:01;;;;;;;14.75;7.25;;;;;;;-0.73;100.00;99320.47;5077756;28;20028;-92
2024/01/18 03:02:27;;;;;;;18.83;9.70;;;;;;;-0.75;100.00;99327.81;5076671;28;20437;-91
2024/01/18 03:04:59;;;;;;;15.70;7.85;;;;;;;-0.75;100.00;99335.81;5077498;28;20024;-91
2024/01/18 03:07:28;;;;;;;22.48;9.82;;;;;;;-0.75;100.00;99335.00;5077733;28;20047;-91
2024/01/18 03:10:04;;;;;;;18.87;9.53;;;;;;;-0.75;100.00;99335.81;5060830;28;20036;-91
2024/01/18 03:12:39;;;;;;;17.33;8.70;;;;;;;-0.75;100.00;99332.34;5044966;28;20039;-92
2024/01/18 03:15:13;;;;;;;12.75;7.05;;;;;;;-0.73;100.00;99338.28;5095300;28;20103;-92
2024/01/18 03:17:50;;;;;;;20.73;9.95;;;;;;;-0.77;100.00;99329.00;5077539;28;20032;-90
2024/01/18 03:20:15;;;;;;;15.93;9.18;;;;;;;-0.80;100.00;99343.50;5061508;28;20048;-90
2024/01/18 03:22:45;;;;;;;10.30;6.17;;;;;;;-0.74;100.00;99349.94;5076632;28;20036;-92
2024/01/18 03:25:12;;;;;;;14.05;7.63;;;;;;;-0.73;100.00;99335.63;5077122;28;20041;-91
2024/01/18 03:27:40;;;;;;;14.85;8.43;;;;;;;-0.73;100.00;99332.97;5077022;28;20031;-91
2024/01/18 03:30:09;;;;;;;17.87;8.97;;;;;;;-0.74;100.00;99347.28;5077239;28;20055;-91
2024/01/18 03:32:35;;;;;;;13.80;8.15;;;;;;;-0.76;100.00;99341.31;5060145;28;20032;-92
2024/01/18 03:35:06;;;;;;;14.60;6.97;;;;;;;-0.74;100.00;99337.47;5076775;28;20020;-92
2024/01/18 03:37:33;;;;;;;16.00;7.83;;;;;;;-0.74;100.00;99350.78;5078397;28;20478;-92
2024/01/18 03:40:06;;;;;;;14.80;7.43;;;;;;;-0.80;100.00;99337.34;5076671;28;20044;-91
2024/01/18 03:42:38;;;;;;;12.05;5.80;;;;;;;-0.83;100.00;99335.06;5077071;28;20068;-92
2024/01/18 03:45:07;;;;;;;11.88;5.78;;;;;;;-0.82;100.00;99352.69;5080133;28;20028;-92
2024/01/18 03:47:35;;;;;;;14.13;6.72;;;;;;;-0.87;100.00;99353.22;5065075;28;20028;-91
2024/01/18 03:50:02;;;;;;;21.03;10.07;;;;;;;-0.91;100.00;99363.38;5081500;28;20388;-92
2024/01/18 03:52:29;;;;;;;17.83;10.07;;;;;;;-0.97;100.00;99356.13;5080664;28;20036;-92
2024/01/18 03:54:55;;;;;;;17.77;9.15;;;;;;;-1.01;100.00;99356.66;5081103;28;20532;-91
2024/01/18 03:57:21;;;;;;;16.90;9.00;;;;;;;-1.01;100.00;99372.63;5080706;28;20032;-92
2024/01/18 03:59:49;;;;;;;16.33;7.68;;;;;;;-0.99;100.00;99370.59;5080078;28;20123;-91
2024/01/18 04:02:17;;;;;;;15.95;7.47;;;;;;;-1.04;100.00;99357.00;5079457;28;20035;-91
2024/01/18 04:04:42;;;;;;;16.00;7.43;;;;;;;-1.05;100.00;99377.47;5080620;28;20035;-90
2024/01/18 04:07:08;;;;;;;14.68;7.10;;;;;;;-1.11;100.00;99379.00;5079357;28;20032;-91
2024/01/18 04:09:36;;;;;;;17.53;8.77;;;;;;;-1.20;100.00;99373.91;5063006;28;20407;-91
2024/01/18 04:12:05;;;;;;;25.52;10.10;;;;;;;-1.26;100.00;99380.75;5079844;28;20028;-92
2024/01/18 04:14:31;;;;;;;14.15;7.15;;;;;;;-1.34;100.00;99372.81;5080544;28;20467;-91
2024/01/18 04:17:02;;;;;;;17.37;9.23;;;;;;;-1.45;100.00;99372.22;5079007;28;20464;-91
2024/01/18 04:19:31;;;;;;;17.73;8.82;;;;;;;-1.47;100.00;99376.03;5080496;28;20292;-91
2024/01/18 04:21:57;;;;;;;14.77;7.55;;;;;;;-1.52;100.00;99371.25;5079549;28;20062;-92
2024/01/18 04:24:33;;;;;;;17.08;9.23;;;;;;;-1.54;100.00;99389.19;5079633;28;20063;-91
2024/01/18 04:26:59;;;;;;;19.80;9.70;;;;;;;-1.62;100.00;99387.41;5080018;28;20046;-91
2024/01/18 04:29:30;;;;;;;9.88;5.80;;;;;;;-1.59;100.00;99386.22;5079461;28;20452;-91
2024/01/18 04:31:56;;;;;;;13.07;7.47;;;;;;;-1.64;100.00;99385.91;5080183;28;20028;-91
2024/01/18 04:34:22;;;;;;;16.03;6.80;;;;;;;-1.64;100.00;99388.56;5079562;28;20028;-92
2024/01/18 04:36:47;;;;;;;11.20;5.63;;;;;;;-1.65;100.00;99387.75;5080418;28;20084;-92
2024/01/18 04:39:16;;;;;;;14.17;6.83;;;;;;;-1.65;100.00;99400.22;5079502;28;20073;-92
2024/01/18 04:41:41;;;;;;;13.60;7.00;;;;;;;-1.72;100.00;99393.94;5080135;28;20024;-91
2024/01/18 04:44:16;;;;;;;12.93;6.77;;;;;;;-1.75;100.00;99405.72;5079630;28;20357;-91
2024/01/18 04:46:42;;;;;;;14.25;7.75;;;;;;;-1.82;100.00;99408.22;5079281;28;20464;-91
2024/01/18 04:49:07;;;;;;;14.97;7.47;;;;;;;-1.86;100.00;99411.41;5078909;28;20024;-90
2024/01/18 04:51:36;;;;;;;11.43;5.63;;;;;;;-1.85;100.00;99426.38;5075476;28;20447;-92
2024/01/18 04:54:04;;;;;;;11.30;5.88;;;;;;;-1.86;100.00;99428.19;5059811;28;20139;-92
2024/01/18 04:56:37;;;;;;;13.43;6.87;;;;;;;-1.96;100.00;99423.06;5059566;28;20071;-91
2024/01/18 04:59:08;;;;;;;12.60;7.03;;;;;;;-2.03;100.00;99432.72;5061021;28;20479;-91
2024/01/18 05:01:47;;;;;;;;;;;;;;;;;;;;;
2024/01/18 05:04:18;;;;;;;14.95;8.05;;;;;;;-2.08;100.00;99451.00;5076568;28;20028;-91
2024/01/18 05:06:47;;;;;;;22.40;7.38;;;;;;;-2.09;100.00;99444.00;5075409;28;20078;-91
2024/01/18 05:09:34;;;;;;;17.77;8.80;;;;;;;-2.14;100.00;99455.16;5075621;28;20056;-91
2024/01/18 05:12:00;;;;;;;14.93;7.57;;;;;;;-2.21;100.00;99450.69;5075267;28;20032;-91
2024/01/18 05:14:29;;;;;;;13.57;5.80;;;;;;;-2.17;100.00;99446.66;5075202;28;20039;-91
2024/01/18 05:17:10;;;;;;;14.30;7.82;;;;;;;-2.24;100.00;99441.19;5075129;28;20074;-92
2024/01/18 05:19:41;;;;;;;13.57;6.97;;;;;;;-2.24;100.00;99443.00;5059997;28;20029;-92
2024/01/18 05:22:12;;;;;;;17.52;8.32;;;;;;;-2.34;100.00;99452.00;5059389;28;20043;-92
2024/01/18 05:24:38;;;;;;;14.90;8.00;;;;;;;-2.39;100.00;99442.84;5075713;28;20576;-92
2024/01/18 05:27:36;;;;;;;;;;;;;;;;;;;;;
2024/01/18 05:30:12;;;;;;;13.57;6.15;;;;;;;-2.45;100.00;99449.69;5077011;28;20610;-91
2024/01/18 05:32:40;;;;;;;12.30;6.43;;;;;;;-2.48;100.00;99455.31;5075690;28;20465;-92
2024/01/18 05:35:08;;;;;;;16.02;7.88;;;;;;;-2.59;100.00;99448.50;5059152;28;20044;-92
2024/01/18 05:38:00;;;;;;;16.70;7.93;;;;;;;-2.67;100.00;99462.59;5058418;28;20491;-92
2024/01/18 05:40:31;;;;;;;17.67;8.27;;;;;;;-2.75;100.00;99470.53;5074877;28;20021;-92
2024/01/18 05:43:03;;;;;;;12.27;5.57;;;;;;;-2.86;100.00;99468.22;5075852;28;20730;-93
2024/01/18 05:48:17;;;;;;;8.25;4.55;;;;;;;-2.92;100.00;99479.44;5075663;28;20044;-92
2024/01/18 05:50:47;;;;;;;13.63;6.05;;;;;;;-2.92;100.00;99479.44;5059672;28;20052;-91
2024/01/18 05:53:15;;;;;;;16.27;8.60;;;;;;;-2.95;100.00;99485.09;5078608;28;20098;-91
2024/01/18 05:55:44;;;;;;;11.30;6.72;;;;;;;-2.91;100.00;99489.09;5078061;28;20319;-93
2024/01/18 05:58:14;;;;;;;18.75;8.65;;;;;;;-2.91;100.00;99489.94;5061241;28;20044;-92
2024/01/18 06:00:44;;;;;;;11.93;4.80;;;;;;;-2.90;100.00;99491.56;5078341;28;20085;-91
2024/01/18 06:03:12;;;;;;;12.55;6.53;;;;;;;-2.87;100.00;99504.53;5078396;28;20084;-91
2024/01/18 06:05:40;;;;;;;19.70;8.20;;;;;;;-2.86;100.00;99505.38;5077784;28;20059;-91
2024/01/18 06:08:17;;;;;;;14.20;6.95;;;;;;;-2.93;100.00;99517.63;5060581;28;20305;-93
2024/01/18 06:11:05;;;;;;;17.23;6.80;;;;;;;-2.91;100.00;99518.28;5061596;28;20047;-92
2024/01/18 06:13:41;;;;;;;12.10;6.00;;;;;;;-2.94;100.00;99506.16;5077831;28;20028;-91
2024/01/18 06:16:15;;;;;;;12.88;6.57;;;;;;;-2.91;100.00;99523.59;5078463;28;20353;-91
2024/01/18 06:18:45;;;;;;;9.73;4.80;;;;;;;-2.87;100.00;99535.56;5078126;28;20036;-91
2024/01/18 06:21:14;;;;;;;11.07;6.32;;;;;;;-2.91;100.00;99532.41;5078041;28;20292;-91
2024/01/18 06:23:53;;;;;;;16.80;7.60;;;;;;;-2.91;100.00;99539.50;5077471;28;20062;-92
2024/01/18 06:26:24;;;;;;;10.43;5.65;;;;;;;-2.91;100.00;99543.03;5077532;28;20384;-92
2024/01/18 06:29:07;;;;;;;13.50;7.60;;;;;;;-2.93;100.00;99549.47;5076953;28;20468;-92
2024/01/18 06:31:33;;;;;;;11.97;5.53;;;;;;;-2.94;100.00;99561.91;5076539;28;20047;-91
2024/01/18 06:34:12;;;;;;;10.70;5.57;;;;;;;-2.95;100.00;99546.97;5077835;28;20294;-92
2024/01/18 06:36:41;;;;;;;10.63;6.43;;;;;;;-2.93;100.00;99558.25;5076546;28;20480;-90
2024/01/18 06:39:07;;;;;;;14.68;8.85;;;;;;;-2.94;100.00;99563.72;5077928;28;20124;-92
2024/01/18 06:41:35;;;;;;;16.03;8.60;;;;;;;-2.99;100.00;99558.91;5077216;28;20101;-92
2024/01/18 06:44:00;;;;;;;14.07;7.97;;;;;;;-3.00;100.00;99555.44;5060938;28;20035;-92
2024/01/18 06:46:27;;;;;;;17.50;8.60;;;;;;;-3.05;100.00;99564.84;5078566;28;20032;-93
2024/01/18 06:48:57;;;;;;;12.15;5.72;;;;;;;-3.04;100.00;99566.50;5076826;28;20285;-93
2024/01/18 06:51:58;;;;;;;16.58;7.72;;;;;;;-3.05;100.00;99570.16;5078052;28;20080;-96
2024/01/18 06:54:41;;;;;;;13.05;5.78;;;;;;;-3.15;100.00;99564.94;5078376;28;20098;-96
2024/01/18 06:57:07;;;;;;;10.30;5.47;;;;;;;-3.14;100.00;99571.94;5332340;22;20058;-96
2024/01/18 06:59:45;;;;;;;14.60;5.67;;;;;;;-3.14;100.00;99576.38;5001456;28;20060;-96
2024/01/18 07:02:12;;;;;;;8.73;5.43;;;;;;;-3.14;100.00;99582.53;4997914;28;20034;-89
2024/01/18 07:04:45;;;;;;;7.47;4.70;;;;;;;-3.13;100.00;99584.22;4995847;28;20401;-91
2024/01/18 07:07:11;;;;;;;8.50;4.20;;;;;;;-3.11;100.00;99592.03;4998360;28;20042;-91
2024/01/18 07:09:48;;;;;;;11.90;4.90;;;;;;;-3.23;100.00;99584.31;4995593;28;20040;-91
2024/01/18 07:12:16;;;;;;;16.08;7.63;;;;;;;-3.28;100.00;99596.38;4996196;28;20057;-92
2024/01/18 07:14:42;;;;;;;10.60;4.55;;;;;;;-3.32;100.00;99595.03;4998105;28;20041;-90
2024/01/18 07:17:17;;;;;;;13.00;7.03;;;;;;;-3.36;100.00;99610.44;5005781;28;20022;-91
2024/01/18 07:19:45;;;;;;;13.47;6.53;;;;;;;-3.41;100.00;99607.41;4982202;28;20030;-90
2024/01/18 07:22:20;;;;;;;17.10;7.30;;;;;;;-3.50;100.00;99609.16;4995463;28;20280;-89
2024/01/18 07:24:51;;;;;;;8.48;5.55;;;;;;;-3.55;100.00;99612.28;4995909;28;20466;-90
2024/01/18 07:27:22;;;;;;;12.90;6.63;;;;;;;-3.60;100.00;99609.28;4987245;28;20045;-91
2024/01/18 07:30:06;;;;;;;13.93;7.60;;;;;;;-3.39;100.00;99622.19;5002865;28;20039;-91
2024/01/18 07:32:38;;;;;;;12.60;6.17;;;;;;;-3.39;100.00;99631.97;4988189;28;20044;-91
2024/01/18 07:35:12;;;;;;;12.32;5.22;;;;;;;-3.34;100.00;99640.28;4976505;28;20630;-91
2024/01/18 07:37:55;;;;;;;14.45;6.60;;;;;;;-3.40;100.00;99632.94;4983327;28;20030;-91
2024/01/18 07:40:33;;;;;;;;;;;;;;;;;;;;;
2024/01/18 07:43:05;;;;;;;9.23;4.25;;;;;;;-3.37;100.00;99649.38;5001292;28;20589;-91
2024/01/18 07:45:34;;;;;;;12.03;4.90;;;;;;;-3.40;100.00;99646.22;5006511;28;20029;-90
2024/01/18 07:48:03;;;;;;;11.38;5.43;;;;;;;-3.39;100.00;99647.88;5002762;28;20327;-91
2024/01/18 07:50:31;;;;;;;22.05;6.85;;;;;;;-3.41;100.00;99648.03;4996093;28;20030;-91
2024/01/18 07:53:00;;;;;;;19.67;7.63;;;;;;;-3.47;100.00;99663.72;5003621;28;20112;-91
2024/01/18 07:55:39;;;;;;;18.75;7.03;;;;;;;-3.42;100.00;99662.28;4989397;28;20496;-91
2024/01/18 07:58:07;;;;;;;16.73;6.13;;;;;;;-3.40;100.00;99670.91;4845609;28;4056256;-91
2024/01/18 08:00:37;;;;;;;10.50;5.10;;;;;;;-3.38;100.00;99682.22;4997022;28;20145;-91
2024/01/18 08:03:05;;;;;;;15.40;6.90;;;;;;;-3.36;100.00;99685.53;4977648;28;20034;-92
2024/01/18 08:05:36;;;;;;;13.50;6.53;;;;;;;-3.36;100.00;99690.00;4993911;28;20064;-92
2024/01/18 08:08:04;;;;;;;7.03;4.37;;;;;;;-3.30;100.00;99693.88;4994097;28;20037;-91
2024/01/18 08:10:30;;;;;;;10.68;4.30;;;;;;;-3.29;100.00;99706.13;5009558;28;20393;-91
2024/01/18 08:12:58;;;;;;;16.55;5.78;;;;;;;-3.31;100.00;99702.81;5023035;28;20113;-91
2024/01/18 08:15:23;;;;;;;9.73;4.17;;;;;;;-3.25;100.00;99705.69;5000383;28;20081;-91
2024/01/18 08:17:52;;;;;;;14.77;6.13;;;;;;;-3.18;100.00;99709.38;5003675;28;20041;-91
2024/01/18 08:20:23;;;;;;;9.17;4.53;;;;;;;-3.16;100.00;99709.22;5012064;28;20040;-90
2024/01/18 08:22:52;;;;;;;11.18;5.30;;;;;;;-3.12;100.00;99713.22;4979647;28;20305;-91
2024/01/18 08:25:20;;;;;;;15.05;6.30;;;;;;;-3.09;100.00;99718.22;4989177;28;20021;-90
2024/01/18 08:27:57;;;;;;;19.30;6.75;;;;;;;-3.08;100.00;99711.94;5009392;28;20060;-91
2024/01/18 08:30:27;;;;;;;12.55;5.85;;;;;;;-3.04;100.00;99721.28;5016527;28;20026;-91
2024/01/18 08:32:55;;;;;;;16.60;7.23;;;;;;;-3.00;100.00;99727.94;5016487;28;20030;-91
2024/01/18 08:35:31;;;;;;;18.60;7.90;;;;;;;-2.96;100.00;99736.41;5001111;28;20276;-91
2024/01/18 08:37:56;;;;;;;13.65;6.25;;;;;;;-2.92;100.00;99742.22;5001853;28;20041;-90
2024/01/18 08:40:26;;;;;;;14.05;6.80;;;;;;;-2.91;100.00;99739.44;4999438;28;20410;-91
2024/01/18 08:42:56;;;;;;;13.70;6.77;;;;;;;-2.84;100.00;99744.97;4983986;28;20061;-91
2024/01/18 08:45:29;;;;;;;11.95;6.50;;;;;;;-2.80;100.00;99748.97;5001380;28;20090;-91
2024/01/18 08:48:06;;;;;;;16.95;7.55;;;;;;;-2.78;100.00;99746.97;5000909;28;20462;-90
2024/01/18 08:50:37;;;;;;;14.68;7.18;;;;;;;-2.76;100.00;99750.34;5017788;28;20038;-89
2024/01/18 08:53:05;;;;;;;19.27;7.15;;;;;;;-2.75;100.00;99749.31;5003031;28;20029;-89
2024/01/18 08:55:40;;;;;;;9.10;4.63;;;;;;;-2.74;100.00;99756.31;5001906;28;20389;-91
2024/01/18 08:58:18;;;;;;;12.48;5.95;;;;;;;-2.73;100.00;99760.63;5020154;28;20053;-91
2024/01/18 09:00:46;;;;;;;9.15;5.28;;;;;;;-2.72;100.00;99778.22;4987860;28;20042;-89
2024/01/18 09:03:24;;;;;;;9.93;4.55;;;;;;;-2.70;100.00;99781.56;4996095;28;20079;-95
2024/01/18 09:06:16;;;;;;;12.48;4.53;;;;;;;-2.66;100.00;99777.63;5023712;28;20010;-92
2024/01/18 09:08:52;;;;;;;17.03;7.37;;;;;;;-2.59;100.00;99787.63;5039254;28;20064;-91
2024/01/18 09:11:26;;;;;;;10.95;5.88;;;;;;;-2.56;100.00;99788.13;5022114;28;20065;-90
2024/01/18 09:14:09;;;;;;;;;;;;;;;;;;;;;
2024/01/18 09:17:04;;;;;;;15.68;6.28;;;;;;;-2.46;100.00;99796.00;5003872;28;20546;-91
2024/01/18 09:19:33;;;;;;;10.25;5.05;;;;;;;-2.41;100.00;99803.50;5002815;28;20037;-91
2024/01/18 09:22:09;;;;;;;;;;;;;;;;;;;;;
2024/01/18 09:24:37;;;;;;;10.60;5.45;;;;;;;-2.35;100.00;99817.00;5031636;28;20037;-92
2024/01/18 09:27:05;;;;;;;11.60;5.88;;;;;;;-2.33;100.00;99814.19;5021903;28;20021;-91
2024/01/18 09:29:39;;;;;;;12.10;5.88;;;;;;;-2.31;100.00;99822.81;5038613;28;20022;-95
2024/01/18 09:32:10;;;;;;;10.07;4.80;;;;;;;-2.27;100.00;99826.84;5007247;28;20034;-91
2024/01/18 09:34:40;;;;;;;10.03;5.50;;;;;;;-2.25;100.00;99830.16;5012860;28;20057;-91
2024/01/18 09:40:00;;;;;;;11.02;4.82;;;;;;;-2.17;100.00;99846.16;5016980;28;20046;-91
2024/01/18 09:42:32;;;;;;;7.93;4.72;;;;;;;-2.14;100.00;99855.63;4997853;28;20080;-91
2024/01/18 09:45:08;;;;;;;7.47;3.75;;;;;;;-2.09;100.00;99863.16;4998390;28;20038;-91
2024/01/18 09:47:34;;;;;;;6.73;4.10;;;;;;;-2.05;100.00;99865.31;4998571;28;20030;-89
2024/01/18 09:50:03;;;;;;;9.48;4.15;;;;;;;-2.00;100.00;99873.66;4998382;28;20037;-91
2024/01/18 09:52:45;;;;;;;;;;;;;;;;;;;;;
2024/01/18 09:55:13;;;;;;;8.15;4.40;;;;;;;-1.87;100.00;99885.69;5014701;28;20028;-91
2024/01/18 09:57:47;;;;;;;11.70;4.10;;;;;;;-1.85;100.00;99887.19;4997608;28;20113;-90
2024/01/18 10:00:20;;;;;;;8.50;3.83;;;;;;;-1.78;100.00;99885.56;4998194;28;20280;-91
2024/01/18 10:02:58;;;;;;;10.65;4.03;;;;;;;-1.71;100.00;99892.91;5006179;28;20128;-90
2024/01/18 10:05:33;;;;;;;6.28;3.38;;;;;;;-1.65;100.00;99898.44;4998723;28;20095;-91
2024/01/18 10:08:22;;;;;;;15.30;4.07;;;;;;;-1.61;100.00;99915.75;5012595;28;20034;-91
2024/01/18 10:10:50;;;;;;;9.77;3.30;;;;;;;-1.55;100.00;99908.97;5015227;28;20478;-91
2024/01/18 10:13:57;;;;;;;7.35;3.42;;;;;;;-1.45;100.00;99922.97;5014179;28;20295;-93
2024/01/18 10:16:40;;;;;;;;;;;;;;;;;;;;;
2024/01/18 10:19:14;;;;;;;8.80;3.20;;;;;;;-1.36;100.00;99937.13;4955209;29;20042;-91
2024/01/18 10:21:43;;;;;;;5.68;3.10;;;;;;;-1.30;100.00;99933.00;4980221;28;20080;-90
2024/01/18 10:24:25;;;;;;;11.50;3.57;;;;;;;-1.26;100.00;99937.81;4977151;28;20042;-91
2024/01/18 10:27:04;;;;;;;9.75;3.53;;;;;;;-1.20;100.00;99943.50;4976632;28;20297;-91
2024/01/18 10:29:41;;;;;;;10.63;3.80;;;;;;;-1.17;100.00;99946.69;4976919;28;20031;-91
2024/01/18 10:32:16;;;;;;;;;;;;;;;;;;;;;
2024/01/18 10:34:43;;;;;;;11.32;3.38;;;;;;;-1.11;100.00;99951.38;4993510;28;20038;-91
2024/01/18 10:37:23;;;;;;;9.27;3.30;;;;;;;-1.05;100.00;99947.22;4976974;28;20121;-91
2024/01/18 10:39:54;;;;;;;7.05;2.80;;;;;;;-0.97;100.00;99951.75;4992107;28;20049;-90
2024/01/18 10:42:23;;;;;;;8.43;3.38;;;;;;;-0.89;100.00;99951.75;4977194;28;20085;-91
2024/01/18 10:44:50;;;;;;;10.23;3.70;;;;;;;-0.81;100.00;99957.13;4992931;28;20070;-90
2024/01/18 10:47:22;;;;;;;5.37;2.73;;;;;;;-0.72;100.00;99947.31;4976528;28;20045;-90
2024/01/18 10:49:55;;;;;;;9.15;3.70;;;;;;;-0.65;100.00;99952.78;4977511;28;20317;-89
2024/01/18 10:52:30;;;;;;;7.05;3.33;;;;;;;-0.59;100.00;99955.66;4992554;28;20038;-91
2024/01/18 10:58:00;;;;;;;7.32;3.30;;;;;;;-0.45;100.00;99958.66;4969363;28;20054;-91
2024/01/18 11:00:25;;;;;;;7.57;3.83;;;;;;;-0.39;100.00;99964.16;5010117;28;20035;-91
2024/01/18 11:02:59;;;;;;;5.20;3.10;;;;;;;-0.29;100.00;99971.16;4996627;28;20295;-90
2024/01/18 11:05:28;;;;;;;8.13;2.70;;;;;;;-0.25;100.00;99973.34;4997007;28;20463;-91
2024/01/18 11:07:54;;;;;;;4.93;2.50;;;;;;;-0.15;100.00;99980.31;4996722;28;20077;-91
2024/01/18 11:10:20;;;;;;;8.85;2.67;;;;;;;-0.07;100.00;99988.34;4996951;28;20285;-91
2024/01/18 11:13:04;;;;;;;6.72;2.92;;;;;;;0.02;100.00;99979.31;4996859;28;20026;-91
2024/01/18 11:15:33;;;;;;;7.10;3.10;;;;;;;0.09;100.00;99990.13;4980545;28;20030;-91
2024/01/18 11:18:11;;;;;;;8.85;3.15;;;;;;;0.17;100.00;99996.28;5013327;28;20375;-91
2024/01/18 11:21:04;;;;;;;9.02;3.47;;;;;;;0.32;100.00;99998.28;4996681;28;20038;-91
2024/01/18 11:23:43;;;;;;;9.02;3.70;;;;;;;0.38;100.00;99994.94;5012844;28;20486;-91
2024/01/18 11:26:18;;;;;;;9.20;3.63;;;;;;;0.50;100.00;99995.41;4981313;28;20037;-91
2024/01/18 11:28:49;;;;;;;10.87;3.60;;;;;;;0.62;100.00;99999.41;4997024;28;20029;-91
2024/01/18 11:31:51;;;;;;;;;;;;;;;;;;;;;
2024/01/18 11:34:37;;;;;;;9.45;3.50;;;;;;;0.99;100.00;100011.28;5015137;28;20052;-91
2024/01/18 11:37:14;;;;;;;10.70;2.85;;;;;;;1.39;100.00;100032.66;5000465;28;20042;-92
2024/01/18 11:39:52;;;;;;;6.20;3.00;;;;;;;1.89;100.00;100038.50;4996615;28;20026;-92
2024/01/18 11:42:23;;;;;;;5.90;2.93;;;;;;;2.17;100.00;100030.75;5013111;28;20041;-92
2024/01/18 11:45:00;;;;;;;7.07;2.53;;;;;;;2.28;100.00;100032.16;4997086;28;20272;-92
2024/01/18 11:47:38;;;;;;;4.32;2.30;;;;;;;2.39;100.00;100039.78;4996972;28;20036;-92
2024/01/18 11:50:10;;;;;;;6.65;2.75;;;;;;;2.54;100.00;100030.91;4997246;28;20482;-93
2024/01/18 11:52:45;;;;;;;5.60;2.10;;;;;;;2.80;100.00;100033.16;5012983;28;20120;-92
2024/01/18 11:55:19;;;;;;;6.03;2.37;;;;;;;3.18;100.00;100037.59;4996396;28;20034;-93
2024/01/18 12:01:26;;;;;;;3.70;1.00;;;;;;;4.32;100.00;100031.53;4916190;29;20047;-92
2024/01/18 12:04:21;;;;;;;3.80;0.82;;;;;;;4.98;100.00;100047.25;4997002;28;20076;-92
2024/01/18 12:07:26;;;;;;;5.38;0.75;;;;;;;5.74;100.00;100059.81;4972135;28;20112;-92
2024/01/18 12:10:00;;;;;;;2.35;0.75;;;;;;;6.31;100.00;100048.72;4999490;28;20041;-94
2024/01/18 12:12:33;;;;;;;4.47;0.90;;;;;;;6.95;100.00;100070.63;5001220;28;20034;-94
2024/01/18 12:15:18;;;;;;;4.50;0.80;;;;;;;7.48;95.73;100065.06;5000865;28;20034;-93
2024/01/18 12:17:47;;;;;;;2.45;0.60;;;;;;;7.81;85.81;100068.66;5000482;28;20034;-93